Time;durP1;ratioP1;P1;durP2;ratioP2;P2;SDS_P1;SDS_P2;PMS_P1;PMS_P2;Temp;Humidity;BMP_temperature;BMP_pressure;BME280_temperature;BME280_humidity;BME280_pressure;Samples;Min_cycle;Max_cycle;Signal;HPM_P1;HPM_P2
2022/04/11 00:00:28;;;;;;;2.13;1.33;;;;;;;;;;5036684;28;20156;-63
2022/04/11 00:02:53;;;;;;;3.37;1.60;;;;;;;;;;5029898;28;20097;-64
2022/04/11 00:05:18;;;;;;;3.17;1.50;;;;;;;;;;5041953;28;20021;-63
2022/04/11 00:07:44;;;;;;;2.00;1.30;;;;;;;;;;5048518;28;20022;-64
2022/04/11 00:10:09;;;;;;;3.80;1.33;;;;;;;;;;5051348;28;20048;-63
2022/04/11 00:12:36;;;;;;;1.87;1.10;;;;;;;;;;5058978;28;20100;-64
2022/04/11 00:15:04;;;;;;;2.07;1.17;;;;;;;;;;5065093;28;20036;-63
2022/04/11 00:17:30;;;;;;;2.70;1.30;;;;;;;;;;5055849;28;20021;-63
2022/04/11 00:19:55;;;;;;;2.77;1.27;;;;;;;;;;5067833;28;20382;-64
2022/04/11 00:22:20;;;;;;;2.47;1.10;;;;;;;;;;5060908;28;20062;-63
2022/04/11 00:24:45;;;;;;;2.47;1.30;;;;;;;;;;5075330;28;20385;-63
2022/04/11 00:27:10;;;;;;;2.57;1.53;;;;;;;;;;5049783;28;20520;-63
2022/04/11 00:29:36;;;;;;;1.80;1.20;;;;;;;;;;5048576;28;20017;-64
2022/04/11 00:32:01;;;;;;;2.27;1.30;;;;;;;;;;5052634;28;20025;-64
2022/04/11 00:34:26;;;;;;;2.97;1.47;;;;;;;;;;5053678;28;20024;-64
2022/04/11 00:36:51;;;;;;;1.70;1.57;;;;;;;;;;5044718;28;20025;-63
2022/04/11 00:39:16;;;;;;;1.87;1.03;;;;;;;;;;5056502;28;20472;-63
2022/04/11 00:41:41;;;;;;;1.60;1.27;;;;;;;;;;5051386;28;20501;-63
2022/04/11 00:44:07;;;;;;;2.07;1.20;;;;;;;;;;5055189;28;20087;-64
2022/04/11 00:46:32;;;;;;;4.67;1.63;;;;;;;;;;5053703;28;20551;-63
2022/04/11 00:48:57;;;;;;;3.13;1.53;;;;;;;;;;5059461;28;20099;-62
2022/04/11 00:51:23;;;;;;;2.37;1.60;;;;;;;;;;5054279;28;20394;-63
2022/04/11 00:53:49;;;;;;;2.70;1.50;;;;;;;;;;5068940;28;20532;-63
2022/04/11 00:56:16;;;;;;;3.77;1.90;;;;;;;;;;5071786;28;20067;-63
2022/04/11 00:58:41;;;;;;;5.80;1.87;;;;;;;;;;5047407;28;20056;-63
2022/04/11 01:01:07;;;;;;;3.90;2.07;;;;;;;;;;5061314;28;20021;-63
2022/04/11 01:03:36;;;;;;;2.87;1.83;;;;;;;;;;5053440;28;20029;-63
2022/04/11 01:06:01;;;;;;;2.57;1.83;;;;;;;;;;5054857;28;20087;-63
2022/04/11 01:08:27;;;;;;;3.30;1.80;;;;;;;;;;5057236;28;20032;-63
2022/04/11 01:10:53;;;;;;;1.90;1.50;;;;;;;;;;5061279;28;20483;-62
2022/04/11 01:13:18;;;;;;;7.03;1.60;;;;;;;;;;5065474;28;20469;-62
2022/04/11 01:15:56;;;;;;;1.97;1.30;;;;;;;;;;5065782;28;20020;-63
2022/04/11 01:18:21;;;;;;;6.13;1.43;;;;;;;;;;5060734;28;20032;-63
2022/04/11 01:20:47;;;;;;;2.63;1.17;;;;;;;;;;5073642;28;20438;-63
2022/04/11 01:23:12;;;;;;;4.57;1.63;;;;;;;;;;5059385;28;20127;-63
2022/04/11 01:25:39;;;;;;;2.30;1.27;;;;;;;;;;5053966;28;20102;-63
2022/04/11 01:28:04;;;;;;;1.93;1.50;;;;;;;;;;5055400;28;20469;-62
2022/04/11 01:30:29;;;;;;;2.50;1.40;;;;;;;;;;5036693;28;20342;-62
2022/04/11 01:32:54;;;;;;;2.57;1.37;;;;;;;;;;5050835;28;20385;-63
2022/04/11 01:35:20;;;;;;;3.10;1.80;;;;;;;;;;5070749;28;20033;-62
2022/04/11 01:37:46;;;;;;;1.87;1.37;;;;;;;;;;5054593;28;20028;-63
2022/04/11 01:40:11;;;;;;;2.33;1.53;;;;;;;;;;5053662;28;20429;-64
2022/04/11 01:42:36;;;;;;;6.37;1.70;;;;;;;;;;5055400;28;20053;-62
2022/04/11 01:45:01;;;;;;;5.27;1.43;;;;;;;;;;5047695;28;20037;-63
2022/04/11 01:47:27;;;;;;;2.80;1.60;;;;;;;;;;5057201;28;20039;-63
2022/04/11 01:49:52;;;;;;;1.50;1.20;;;;;;;;;;5058633;28;20454;-63
2022/04/11 01:52:17;;;;;;;3.93;1.73;;;;;;;;;;5058460;28;20024;-63
2022/04/11 01:54:42;;;;;;;2.57;1.30;;;;;;;;;;5069781;28;20099;-63
2022/04/11 01:57:08;;;;;;;2.33;1.70;;;;;;;;;;5049235;28;20529;-63
2022/04/11 01:59:33;;;;;;;4.37;2.10;;;;;;;;;;5040993;28;20110;-63
2022/04/11 02:01:58;;;;;;;3.80;1.97;;;;;;;;;;5041790;28;20358;-63
2022/04/11 02:04:23;;;;;;;5.33;2.93;;;;;;;;;;5052131;28;20469;-63
2022/04/11 02:06:48;;;;;;;3.93;2.73;;;;;;;;;;5059210;28;20082;-63
2022/04/11 02:09:14;;;;;;;3.27;2.57;;;;;;;;;;5053487;28;20112;-64
2022/04/11 02:11:39;;;;;;;4.70;2.20;;;;;;;;;;5057047;28;20504;-63
2022/04/11 02:14:04;;;;;;;4.33;2.40;;;;;;;;;;5052674;28;20032;-63
2022/04/11 02:16:29;;;;;;;2.87;1.87;;;;;;;;;;5056897;28;20644;-63
2022/04/11 02:18:54;;;;;;;5.00;2.17;;;;;;;;;;5072279;28;20032;-63
2022/04/11 02:21:20;;;;;;;5.10;2.90;;;;;;;;;;5056011;28;20063;-63
2022/04/11 02:23:46;;;;;;;7.37;2.60;;;;;;;;;;5060385;28;20021;-64
2022/04/11 02:26:11;;;;;;;5.03;3.67;;;;;;;;;;5051715;28;20029;-63
2022/04/11 02:28:36;;;;;;;7.00;4.70;;;;;;;;;;5047411;28;20504;-63
2022/04/11 02:31:02;;;;;;;8.43;5.40;;;;;;;;;;5055377;28;20021;-63
2022/04/11 02:33:27;;;;;;;8.83;5.53;;;;;;;;;;5052103;28;20036;-64
2022/04/11 02:35:52;;;;;;;9.93;5.33;;;;;;;;;;5051050;28;20060;-63
2022/04/11 02:38:17;;;;;;;9.70;5.37;;;;;;;;;;5051844;28;20032;-63
2022/04/11 02:40:42;;;;;;;9.97;4.90;;;;;;;;;;5051593;28;20107;-63
2022/04/11 02:43:07;;;;;;;7.00;4.93;;;;;;;;;;5061456;28;20474;-63
2022/04/11 02:45:33;;;;;;;11.37;4.87;;;;;;;;;;5041185;28;20037;-63
2022/04/11 02:47:58;;;;;;;5.90;3.67;;;;;;;;;;5056673;28;20497;-63
2022/04/11 02:50:23;;;;;;;6.67;3.83;;;;;;;;;;5054072;28;20481;-63
2022/04/11 02:52:48;;;;;;;9.63;5.17;;;;;;;;;;5068241;28;20438;-63
2022/04/11 02:55:13;;;;;;;6.23;4.57;;;;;;;;;;5056628;28;20465;-64
2022/04/11 02:57:39;;;;;;;6.47;4.13;;;;;;;;;;5044758;28;20033;-64
2022/04/11 03:00:12;;;;;;;7.67;4.50;;;;;;;;;;5042076;28;20045;-64
2022/04/11 03:02:37;;;;;;;5.40;3.33;;;;;;;;;;5040573;28;20021;-64
2022/04/11 03:05:02;;;;;;;6.60;3.43;;;;;;;;;;5051091;28;20047;-64
2022/04/11 03:07:28;;;;;;;6.10;3.50;;;;;;;;;;5043447;28;20052;-64
2022/04/11 03:09:53;;;;;;;5.33;3.73;;;;;;;;;;5069149;28;20408;-64
2022/04/11 03:12:18;;;;;;;7.43;4.13;;;;;;;;;;5054171;28;20032;-64
2022/04/11 03:14:43;;;;;;;7.07;4.10;;;;;;;;;;5053254;28;20082;-64
2022/04/11 03:17:09;;;;;;;7.77;3.57;;;;;;;;;;5051251;28;20041;-64
2022/04/11 03:19:34;;;;;;;5.63;3.77;;;;;;;;;;5051676;28;20108;-63
2022/04/11 03:22:00;;;;;;;5.63;2.37;;;;;;;;;;5051846;28;20024;-63
2022/04/11 03:24:25;;;;;;;5.80;2.30;;;;;;;;;;5054360;28;20074;-64
2022/04/11 03:26:50;;;;;;;3.67;2.83;;;;;;;;;;5050823;28;20474;-64
2022/04/11 03:29:16;;;;;;;4.10;2.50;;;;;;;;;;5031839;28;20083;-63
2022/04/11 03:31:41;;;;;;;5.73;2.90;;;;;;;;;;5043931;28;20029;-64
2022/04/11 03:34:06;;;;;;;6.13;2.90;;;;;;;;;;5043863;28;20450;-64
2022/04/11 03:36:31;;;;;;;5.67;3.00;;;;;;;;;;5045420;28;20059;-64
2022/04/11 03:38:56;;;;;;;5.07;2.70;;;;;;;;;;5048698;28;20025;-64
2022/04/11 03:41:22;;;;;;;4.40;3.43;;;;;;;;;;5056672;28;20033;-63
2022/04/11 03:43:47;;;;;;;4.50;2.67;;;;;;;;;;5071063;28;20133;-63
2022/04/11 03:46:12;;;;;;;7.43;2.97;;;;;;;;;;5050418;28;20371;-63
2022/04/11 03:48:37;;;;;;;3.77;2.97;;;;;;;;;;5052529;28;20118;-63
2022/04/11 03:51:03;;;;;;;6.90;3.63;;;;;;;;;;5054523;28;20152;-63
2022/04/11 03:53:28;;;;;;;5.33;3.67;;;;;;;;;;5056319;28;20104;-63
2022/04/11 03:55:53;;;;;;;6.23;2.90;;;;;;;;;;5061556;28;20032;-63
2022/04/11 03:58:18;;;;;;;3.50;2.70;;;;;;;;;;5045640;28;20116;-64
2022/04/11 04:00:43;;;;;;;5.63;3.40;;;;;;;;;;5046655;28;20037;-63
2022/04/11 04:03:10;;;;;;;6.20;3.70;;;;;;;;;;5051824;28;20477;-63
2022/04/11 04:05:39;;;;;;;7.33;3.60;;;;;;;;;;5055324;28;20025;-63
2022/04/11 04:08:05;;;;;;;5.80;3.73;;;;;;;;;;5060037;28;20032;-63
2022/04/11 04:10:30;;;;;;;6.90;4.33;;;;;;;;;;5069004;28;20025;-63
2022/04/11 04:12:58;;;;;;;6.83;3.57;;;;;;;;;;5064170;28;20029;-64
2022/04/11 04:15:24;;;;;;;4.10;3.47;;;;;;;;;;5053871;28;20025;-64
2022/04/11 04:17:51;;;;;;;6.77;4.00;;;;;;;;;;5058737;28;20406;-64
2022/04/11 04:20:16;;;;;;;6.17;3.80;;;;;;;;;;5062900;28;20024;-64
2022/04/11 04:22:41;;;;;;;5.87;3.90;;;;;;;;;;5055095;28;20124;-64
2022/04/11 04:25:07;;;;;;;7.00;3.43;;;;;;;;;;5054825;28;20032;-64
2022/04/11 04:27:32;;;;;;;6.20;3.90;;;;;;;;;;5049695;28;20024;-64
2022/04/11 04:29:57;;;;;;;7.30;3.77;;;;;;;;;;5051071;28;20021;-64
2022/04/11 04:32:22;;;;;;;5.63;3.53;;;;;;;;;;5044941;28;20068;-64
2022/04/11 04:34:48;;;;;;;4.43;2.93;;;;;;;;;;5049583;28;20113;-64
2022/04/11 04:37:13;;;;;;;6.17;3.93;;;;;;;;;;5025371;28;20079;-64
2022/04/11 04:39:38;;;;;;;6.70;3.80;;;;;;;;;;5056396;28;20082;-64
2022/04/11 04:42:04;;;;;;;7.53;4.10;;;;;;;;;;5053530;28;20031;-64
2022/04/11 04:44:29;;;;;;;9.60;4.10;;;;;;;;;;5058458;28;20028;-64
2022/04/11 04:46:54;;;;;;;8.30;4.00;;;;;;;;;;5047191;28;20029;-64
2022/04/11 04:49:19;;;;;;;7.00;3.90;;;;;;;;;;5054936;28;20025;-64
2022/04/11 04:51:45;;;;;;;7.70;3.40;;;;;;;;;;5054352;28;20078;-64
2022/04/11 04:54:10;;;;;;;7.07;3.67;;;;;;;;;;5054626;28;20028;-64
2022/04/11 04:56:35;;;;;;;6.00;3.60;;;;;;;;;;5052711;28;20013;-64
2022/04/11 04:59:00;;;;;;;4.97;3.90;;;;;;;;;;5053106;28;20059;-64
2022/04/11 05:01:25;;;;;;;5.53;3.83;;;;;;;;;;5038903;28;20024;-64
2022/04/11 05:03:50;;;;;;;5.23;3.87;;;;;;;;;;5058003;28;20125;-64
2022/04/11 05:06:16;;;;;;;4.97;2.87;;;;;;;;;;5054212;28;20052;-64
2022/04/11 05:08:41;;;;;;;4.40;2.97;;;;;;;;;;5052225;28;20039;-64
2022/04/11 05:11:06;;;;;;;5.03;2.53;;;;;;;;;;5059838;28;20021;-64
2022/04/11 05:13:31;;;;;;;4.33;2.73;;;;;;;;;;5049847;28;20111;-64
2022/04/11 05:15:56;;;;;;;5.97;3.27;;;;;;;;;;5053464;28;20055;-64
2022/04/11 05:18:22;;;;;;;4.77;2.80;;;;;;;;;;5053988;28;20025;-64
2022/04/11 05:20:47;;;;;;;7.17;2.53;;;;;;;;;;5056925;28;20036;-63
2022/04/11 05:23:12;;;;;;;7.33;3.20;;;;;;;;;;5053730;28;20573;-64
2022/04/11 05:25:37;;;;;;;4.70;2.70;;;;;;;;;;5046215;28;20052;-64
2022/04/11 05:28:03;;;;;;;5.60;3.23;;;;;;;;;;5039023;28;20064;-64
2022/04/11 05:30:33;;;;;;;4.43;3.07;;;;;;;;;;5037139;28;20036;-64
2022/04/11 05:32:59;;;;;;;6.77;3.13;;;;;;;;;;5042399;28;20044;-64
2022/04/11 05:35:24;;;;;;;3.90;2.50;;;;;;;;;;5047264;28;20470;-64
2022/04/11 05:37:49;;;;;;;6.80;3.50;;;;;;;;;;5033279;28;20069;-64
2022/04/11 05:40:14;;;;;;;7.30;4.03;;;;;;;;;;5042132;28;20065;-64
2022/04/11 05:42:39;;;;;;;6.80;4.57;;;;;;;;;;5052766;28;20079;-64
2022/04/11 05:45:05;;;;;;;8.27;7.13;;;;;;;;;;5046962;28;20074;-63
2022/04/11 05:47:30;;;;;;;14.37;11.87;;;;;;;;;;5050697;28;20020;-63
2022/04/11 05:49:55;;;;;;;11.00;5.07;;;;;;;;;;5057973;28;20477;-63
2022/04/11 05:52:21;;;;;;;8.63;5.33;;;;;;;;;;5050527;28;20374;-64
2022/04/11 05:54:46;;;;;;;6.43;4.20;;;;;;;;;;5063570;28;20027;-64
2022/04/11 05:57:12;;;;;;;7.43;3.23;;;;;;;;;;5049822;28;20033;-64
2022/04/11 05:59:37;;;;;;;7.40;4.10;;;;;;;;;;5041326;28;20045;-63
2022/04/11 06:02:02;;;;;;;5.90;4.67;;;;;;;;;;5050391;28;20064;-65
2022/04/11 06:04:27;;;;;;;6.20;3.73;;;;;;;;;;5052808;28;20028;-64
2022/04/11 06:06:52;;;;;;;4.23;2.87;;;;;;;;;;5046962;28;20091;-64
2022/04/11 06:09:18;;;;;;;4.47;2.33;;;;;;;;;;5051507;28;20027;-64
2022/04/11 06:11:43;;;;;;;6.40;2.50;;;;;;;;;;5053136;28;20112;-64
2022/04/11 06:14:08;;;;;;;6.70;2.70;;;;;;;;;;5053399;28;20025;-64
2022/04/11 06:16:33;;;;;;;6.60;3.27;;;;;;;;;;5032455;28;20033;-64
2022/04/11 06:18:58;;;;;;;5.03;2.80;;;;;;;;;;5061824;28;20567;-64
2022/04/11 06:21:24;;;;;;;3.83;2.90;;;;;;;;;;5052894;28;20029;-64
2022/04/11 06:23:49;;;;;;;5.80;3.20;;;;;;;;;;5052718;28;20020;-63
2022/04/11 06:26:14;;;;;;;5.10;3.33;;;;;;;;;;5052623;28;20029;-63
2022/04/11 06:28:41;;;;;;;5.27;3.00;;;;;;;;;;5042205;28;20037;-63
2022/04/11 06:31:07;;;;;;;2.20;1.83;;;;;;;;;;5037710;28;20071;-65
2022/04/11 06:33:32;;;;;;;6.95;2.03;;;;;;;;;;5047188;28;20029;-63
2022/04/11 06:35:57;;;;;;;4.25;1.60;;;;;;;;;;5044335;28;20086;-64
2022/04/11 06:38:22;;;;;;;2.30;1.30;;;;;;;;;;5048863;28;20025;-63
2022/04/11 06:40:49;;;;;;;4.00;1.20;;;;;;;;;;5032661;28;20029;-64
2022/04/11 06:43:14;;;;;;;6.10;1.00;;;;;;;;;;5032402;28;20025;-63
2022/04/11 06:45:39;;;;;;;4.43;1.20;;;;;;;;;;5042596;28;20533;-63
2022/04/11 06:48:05;;;;;;;4.22;0.70;;;;;;;;;;5051122;28;20016;-63
2022/04/11 06:50:30;;;;;;;4.10;1.05;;;;;;;;;;5050612;28;20051;-64
2022/04/11 06:52:55;;;;;;;5.45;1.02;;;;;;;;;;5052919;28;20070;-63
2022/04/11 06:55:20;;;;;;;3.30;0.93;;;;;;;;;;5051332;28;20120;-63
2022/04/11 06:57:46;;;;;;;1.67;0.60;;;;;;;;;;5043235;28;20037;-63
2022/04/11 07:00:11;;;;;;;3.22;1.10;;;;;;;;;;5037412;28;20048;-64
2022/04/11 07:02:37;;;;;;;2.17;0.50;;;;;;;;;;5050919;28;20370;-63
2022/04/11 07:05:02;;;;;;;3.00;0.47;;;;;;;;;;5051083;28;20036;-64
2022/04/11 07:07:27;;;;;;;3.28;0.40;;;;;;;;;;5049885;28;20043;-64
2022/04/11 07:09:52;;;;;;;2.38;0.30;;;;;;;;;;5050847;28;20115;-63
2022/04/11 07:12:18;;;;;;;4.60;0.47;;;;;;;;;;5050477;28;20078;-63
2022/04/11 07:14:43;;;;;;;2.55;0.40;;;;;;;;;;5048007;28;20052;-64
2022/04/11 07:17:08;;;;;;;3.58;0.45;;;;;;;;;;5021141;28;20464;-64
2022/04/11 07:19:33;;;;;;;3.65;0.50;;;;;;;;;;5062252;28;20020;-64
2022/04/11 07:21:58;;;;;;;2.50;0.47;;;;;;;;;;5060462;28;20036;-64
2022/04/11 07:24:23;;;;;;;1.52;0.35;;;;;;;;;;5047728;28;20036;-64
2022/04/11 07:26:49;;;;;;;1.95;0.35;;;;;;;;;;5047058;28;20025;-64
2022/04/11 07:29:14;;;;;;;5.07;0.65;;;;;;;;;;5039159;28;20370;-65
2022/04/11 07:31:39;;;;;;;3.65;0.47;;;;;;;;;;5030856;28;20032;-65
2022/04/11 07:34:05;;;;;;;0.50;0.30;;;;;;;;;;5049366;28;20036;-65
2022/04/11 07:36:30;;;;;;;0.95;0.20;;;;;;;;;;5059233;28;20025;-65
2022/04/11 07:38:56;;;;;;;1.85;0.38;;;;;;;;;;5052100;28;20029;-65
2022/04/11 07:41:21;;;;;;;2.53;0.45;;;;;;;;;;5049946;28;20021;-65
2022/04/11 07:43:47;;;;;;;1.88;0.30;;;;;;;;;;5057521;28;20396;-65
2022/04/11 07:46:12;;;;;;;1.75;0.20;;;;;;;;;;5048970;28;20025;-66
2022/04/11 07:48:37;;;;;;;1.88;0.17;;;;;;;;;;5033220;28;20040;-65
2022/04/11 07:51:02;;;;;;;2.10;0.30;;;;;;;;;;5061511;28;20704;-66
2022/04/11 07:53:28;;;;;;;1.98;0.20;;;;;;;;;;5032213;28;20362;-66
2022/04/11 07:55:53;;;;;;;1.90;0.13;;;;;;;;;;5051191;28;20065;-66
2022/04/11 07:58:19;;;;;;;1.85;0.13;;;;;;;;;;5042909;28;20029;-66
2022/04/11 08:00:44;;;;;;;1.27;0.32;;;;;;;;;;5051965;28;20118;-65
2022/04/11 08:03:09;;;;;;;1.73;0.30;;;;;;;;;;5059338;28;20029;-66
2022/04/11 08:05:35;;;;;;;3.53;0.13;;;;;;;;;;5049853;28;20041;-66
2022/04/11 08:08:00;;;;;;;0.75;0.20;;;;;;;;;;5052460;28;20480;-66
2022/04/11 08:10:25;;;;;;;1.77;0.30;;;;;;;;;;5050157;28;20017;-65
2022/04/11 08:12:54;;;;;;;1.25;0.20;;;;;;;;;;5051475;28;20032;-65
2022/04/11 08:15:19;;;;;;;3.40;0.30;;;;;;;;;;5043409;28;20186;-65
2022/04/11 08:17:45;;;;;;;1.20;0.10;;;;;;;;;;5041039;28;20437;-65
2022/04/11 08:20:10;;;;;;;3.58;0.30;;;;;;;;;;5051146;28;20029;-65
2022/04/11 08:22:35;;;;;;;0.40;0.10;;;;;;;;;;5051397;28;20428;-66
2022/04/11 08:25:00;;;;;;;1.05;0.10;;;;;;;;;;5049576;28;20037;-67
2022/04/11 08:27:25;;;;;;;0.55;0.10;;;;;;;;;;5042941;28;20389;-66
2022/04/11 08:29:51;;;;;;;0.73;0.10;;;;;;;;;;5047868;28;20486;-67
2022/04/11 08:32:18;;;;;;;2.10;0.10;;;;;;;;;;5061159;28;20099;-66
2022/04/11 08:34:43;;;;;;;0.82;0.20;;;;;;;;;;5054024;28;20501;-66
2022/04/11 08:37:08;;;;;;;2.13;0.40;;;;;;;;;;5053603;28;20029;-66
2022/04/11 08:39:34;;;;;;;0.57;0.10;;;;;;;;;;5061123;28;20060;-66
2022/04/11 08:42:00;;;;;;;1.33;0.20;;;;;;;;;;5063334;28;20025;-71
2022/04/11 08:44:26;;;;;;;1.02;0.10;;;;;;;;;;5051602;28;20473;-67
2022/04/11 08:46:52;;;;;;;1.83;0.10;;;;;;;;;;5038531;28;20036;-66
2022/04/11 08:49:17;;;;;;;0.55;0.10;;;;;;;;;;5062399;28;20029;-64
2022/04/11 08:51:43;;;;;;;0.55;0.00;;;;;;;;;;5054075;28;20036;-64
2022/04/11 08:54:08;;;;;;;0.70;0.13;;;;;;;;;;5050222;28;20031;-64
2022/04/11 08:56:34;;;;;;;0.57;0.10;;;;;;;;;;5053773;28;20119;-64
2022/04/11 08:58:59;;;;;;;1.17;0.10;;;;;;;;;;5040088;28;20060;-64
2022/04/11 09:01:25;;;;;;;1.83;0.10;;;;;;;;;;5055646;28;20054;-64
2022/04/11 09:03:50;;;;;;;0.50;0.10;;;;;;;;;;5052131;28;20037;-68
2022/04/11 09:06:17;;;;;;;0.60;0.20;;;;;;;;;;5051466;28;20393;-68
2022/04/11 09:08:50;;;;;;;1.00;0.25;;;;;;;;;;5043890;28;20107;-67
2022/04/11 09:11:30;;;;;;;1.65;0.10;;;;;;;;;;5050849;28;20041;-67
2022/04/11 09:13:56;;;;;;;0.85;0.10;;;;;;;;;;5058060;28;20104;-67
2022/04/11 09:16:21;;;;;;;0.65;0.00;;;;;;;;;;5051880;28;20116;-66
2022/04/11 09:18:48;;;;;;;0.52;0.10;;;;;;;;;;5052556;28;20493;-67
2022/04/11 09:21:13;;;;;;;0.28;0.08;;;;;;;;;;5052372;28;20452;-67
2022/04/11 09:23:38;;;;;;;0.50;0.10;;;;;;;;;;5053081;28;20029;-67
2022/04/11 09:26:17;;;;;;;1.08;0.20;;;;;;;;;;5053295;28;20481;-67
2022/04/11 09:28:42;;;;;;;0.43;0.10;;;;;;;;;;5045769;28;20025;-67
2022/04/11 09:31:07;;;;;;;0.40;0.08;;;;;;;;;;5051508;28;20032;-66
2022/04/11 09:33:39;;;;;;;1.13;0.10;;;;;;;;;;5039954;28;20020;-63
2022/04/11 09:36:04;;;;;;;1.15;0.13;;;;;;;;;;5051032;28;20136;-67
2022/04/11 09:38:35;;;;;;;1.45;0.10;;;;;;;;;;5052633;28;20111;-66
2022/04/11 09:41:01;;;;;;;1.00;0.10;;;;;;;;;;5047156;28;20021;-67
2022/04/11 09:43:28;;;;;;;0.77;0.10;;;;;;;;;;5039693;28;20489;-67
2022/04/11 09:45:53;;;;;;;1.13;0.10;;;;;;;;;;5037831;28;20044;-67
2022/04/11 09:48:21;;;;;;;1.25;0.10;;;;;;;;;;5051964;28;20025;-67
2022/04/11 09:50:49;;;;;;;0.95;0.10;;;;;;;;;;5045749;28;20021;-67
2022/04/11 09:53:19;;;;;;;1.02;0.10;;;;;;;;;;5033428;28;20034;-67
2022/04/11 09:55:45;;;;;;;0.25;0.10;;;;;;;;;;5043436;28;20088;-67
2022/04/11 09:58:10;;;;;;;1.67;0.20;;;;;;;;;;5041923;28;20036;-67
2022/04/11 10:00:37;;;;;;;1.15;0.20;;;;;;;;;;5046019;28;20021;-65
2022/04/11 10:03:02;;;;;;;0.52;0.00;;;;;;;;;;5047479;28;20048;-62
2022/04/11 10:05:28;;;;;;;0.93;0.10;;;;;;;;;;5042589;28;20404;-62
2022/04/11 10:07:57;;;;;;;0.65;0.00;;;;;;;;;;5038862;28;20526;-62
2022/04/11 10:10:22;;;;;;;1.10;0.00;;;;;;;;;;5041896;28;20077;-63
2022/04/11 10:12:49;;;;;;;0.40;0.08;;;;;;;;;;5041745;28;20647;-63
2022/04/11 10:15:14;;;;;;;0.95;0.20;;;;;;;;;;5042833;28;20132;-63
2022/04/11 10:17:40;;;;;;;1.90;0.20;;;;;;;;;;5039342;28;20029;-62
2022/04/11 10:20:05;;;;;;;1.13;0.10;;;;;;;;;;5040202;28;20025;-63
2022/04/11 10:22:33;;;;;;;1.65;0.10;;;;;;;;;;5051929;28;20108;-70
2022/04/11 10:25:02;;;;;;;0.28;0.10;;;;;;;;;;5062154;28;20084;-70
2022/04/11 10:27:27;;;;;;;0.75;0.10;;;;;;;;;;5046271;28;20029;-70
2022/04/11 10:29:53;;;;;;;0.22;0.03;;;;;;;;;;5049288;28;20119;-71
2022/04/11 10:32:26;;;;;;;0.73;0.10;;;;;;;;;;5045812;28;20024;-69
2022/04/11 10:34:51;;;;;;;0.85;0.05;;;;;;;;;;5047376;28;20028;-70
2022/04/11 10:37:17;;;;;;;0.82;0.10;;;;;;;;;;5057266;28;20016;-70
2022/04/11 10:39:44;;;;;;;1.00;0.10;;;;;;;;;;5043202;28;20075;-64
2022/04/11 10:42:11;;;;;;;0.60;0.03;;;;;;;;;;5051013;28;20056;-68
2022/04/11 10:44:40;;;;;;;0.95;0.10;;;;;;;;;;5032645;28;20018;-68
2022/04/11 10:47:09;;;;;;;0.35;0.10;;;;;;;;;;5030566;28;20041;-67
2022/04/11 10:50:06;;;;;;;0.65;0.10;;;;;;;;;;5033821;28;20108;-68
2022/04/11 10:52:35;;;;;;;0.77;0.10;;;;;;;;;;5049269;28;20020;-67
2022/04/11 10:55:07;;;;;;;1.13;0.20;;;;;;;;;;5032486;28;20028;-67
2022/04/11 10:57:36;;;;;;;0.95;0.20;;;;;;;;;;5045621;28;20053;-68
2022/04/11 11:00:27;;;;;;;0.93;0.20;;;;;;;;;;5045209;28;20100;-68
2022/04/11 11:02:53;;;;;;;0.22;0.22;;;;;;;;;;5043878;28;20048;-68
2022/04/11 11:05:24;;;;;;;0.98;0.35;;;;;;;;;;5044874;28;20025;-68
2022/04/11 11:08:09;;;;;;;0.10;0.10;;;;;;;;;;5044793;28;20382;-69
2022/04/11 11:10:41;;;;;;;0.40;0.20;;;;;;;;;;5033407;28;20536;-68
2022/04/11 11:13:26;;;;;;;0.30;0.10;;;;;;;;;;5033916;28;20021;-69
2022/04/11 11:15:51;;;;;;;0.95;0.20;;;;;;;;;;5045747;28;20021;-68
2022/04/11 11:18:17;;;;;;;0.52;0.10;;;;;;;;;;5044026;28;20032;-68
2022/04/11 11:20:54;;;;;;;0.33;0.10;;;;;;;;;;5045153;28;20443;-68
2022/04/11 11:23:31;;;;;;;1.15;0.30;;;;;;;;;;5046753;28;20279;-69
2022/04/11 11:26:06;;;;;;;0.50;0.13;;;;;;;;;;5037795;28;20025;-68
2022/04/11 11:28:32;;;;;;;0.47;0.10;;;;;;;;;;5036832;28;20025;-68
2022/04/11 11:30:57;;;;;;;1.03;0.30;;;;;;;;;;5046296;28;20015;-69
2022/04/11 11:33:24;;;;;;;1.88;0.13;;;;;;;;;;5033672;28;20322;-68
2022/04/11 11:35:51;;;;;;;0.60;0.10;;;;;;;;;;5050223;28;20012;-68
2022/04/11 11:38:19;;;;;;;1.35;0.10;;;;;;;;;;5031755;28;20079;-68
2022/04/11 11:41:03;;;;;;;0.47;0.10;;;;;;;;;;5043389;28;20020;-68
2022/04/11 11:43:29;;;;;;;1.02;0.20;;;;;;;;;;5046291;28;20029;-68
2022/04/11 11:46:01;;;;;;;0.30;0.10;;;;;;;;;;5045096;28;20020;-68
2022/04/11 11:48:26;;;;;;;0.60;0.10;;;;;;;;;;5031733;28;20026;-68
2022/04/11 11:50:52;;;;;;;0.50;0.20;;;;;;;;;;5048471;28;20070;-68
2022/04/11 11:53:18;;;;;;;0.45;0.20;;;;;;;;;;5049619;28;20255;-68
2022/04/11 11:55:53;;;;;;;0.95;0.20;;;;;;;;;;5039462;28;20067;-68
2022/04/11 11:58:18;;;;;;;0.55;0.20;;;;;;;;;;5034817;28;20025;-68
2022/04/11 12:00:50;;;;;;;0.20;0.10;;;;;;;;;;5038450;28;20080;-68
2022/04/11 12:06:00;;;;;;;;;;;;;;;;;;5036467;28;20115;-68
2022/04/11 12:08:30;;;;;;;;;;;;;;;;;;5037420;28;19995;-68
2022/04/11 12:10:55;;;;;;;0.45;0.10;;;;;;;;;;5040709;28;19913;-68
2022/04/11 12:13:24;;;;;;;0.43;0.10;;;;;;;;;;5042474;28;20529;-68
2022/04/11 12:15:49;;;;;;;1.08;0.20;;;;;;;;;;5041980;28;20283;-68
2022/04/11 12:18:15;;;;;;;0.40;0.10;;;;;;;;;;5039522;28;20096;-68
2022/04/11 12:20:42;;;;;;;0.40;0.20;;;;;;;;;;5041637;28;21792;-67
2022/04/11 12:23:11;;;;;;;0.50;0.10;;;;;;;;;;5053777;28;20022;-68
2022/04/11 12:25:38;;;;;;;0.22;0.15;;;;;;;;;;5048375;28;20025;-69
2022/04/11 12:28:16;;;;;;;0.60;0.10;;;;;;;;;;5059674;28;20481;-67
2022/04/11 12:30:46;;;;;;;0.43;0.17;;;;;;;;;;5053992;28;20100;-67
2022/04/11 12:33:28;;;;;;;0.40;0.10;;;;;;;;;;5049792;28;20021;-67
2022/04/11 12:36:12;;;;;;;0.50;0.10;;;;;;;;;;5037683;28;20060;-68
2022/04/11 12:38:41;;;;;;;0.85;0.15;;;;;;;;;;5054702;28;20028;-69
2022/04/11 12:41:09;;;;;;;0.30;0.10;;;;;;;;;;5038898;28;20078;-68
2022/04/11 12:43:34;;;;;;;0.22;0.10;;;;;;;;;;5053852;28;20056;-70
2022/04/11 12:46:06;;;;;;;0.30;0.20;;;;;;;;;;5052285;28;20474;-73
2022/04/11 12:48:51;;;;;;;1.38;0.40;;;;;;;;;;5027027;28;20030;-73
2022/04/11 12:51:16;;;;;;;0.95;0.20;;;;;;;;;;5050897;28;20546;-72
2022/04/11 12:53:41;;;;;;;0.90;0.20;;;;;;;;;;5040117;28;20013;-73
2022/04/11 12:56:10;;;;;;;1.20;0.10;;;;;;;;;;5042129;28;20061;-72
2022/04/11 12:58:38;;;;;;;0.50;0.30;;;;;;;;;;5040537;28;20279;-74
2022/04/11 13:01:03;;;;;;;1.55;0.20;;;;;;;;;;5043768;28;20550;-73
2022/04/11 13:03:30;;;;;;;0.77;0.20;;;;;;;;;;5038923;28;20032;-73
2022/04/11 13:05:57;;;;;;;0.40;0.20;;;;;;;;;;5051779;28;20025;-73
2022/04/11 13:08:24;;;;;;;1.05;0.20;;;;;;;;;;5040623;28;20036;-74
2022/04/11 13:10:49;;;;;;;0.35;0.10;;;;;;;;;;5051770;28;20017;-74
2022/04/11 13:13:14;;;;;;;0.45;0.10;;;;;;;;;;5048122;28;20059;-74
2022/04/11 13:18:23;;;;;;;0.40;0.10;;;;;;;;;;5053063;28;20045;-74
2022/04/11 13:18:26;;;;;;;0.40;0.20;;;;;;;;;;5035661;28;20394;-73
2022/04/11 13:20:51;;;;;;;0.75;0.20;;;;;;;;;;5047437;28;20026;-73
2022/04/11 13:23:16;;;;;;;0.68;0.20;;;;;;;;;;5056294;28;20036;-73
2022/04/11 13:25:42;;;;;;;0.83;0.20;;;;;;;;;;5032885;28;20112;-73
2022/04/11 13:28:09;;;;;;;0.70;0.20;;;;;;;;;;5033506;28;20284;-73
2022/04/11 13:30:34;;;;;;;1.73;0.20;;;;;;;;;;5040931;28;20116;-73
2022/04/11 13:32:59;;;;;;;0.45;0.15;;;;;;;;;;5033292;28;20108;-73
2022/04/11 13:35:25;;;;;;;0.37;0.20;;;;;;;;;;5050274;28;20071;-73
2022/04/11 13:37:50;;;;;;;1.42;0.20;;;;;;;;;;5034375;28;20437;-73
2022/04/11 13:40:15;;;;;;;0.23;0.20;;;;;;;;;;5036620;28;20017;-73
2022/04/11 13:42:40;;;;;;;0.45;0.10;;;;;;;;;;5040122;28;20094;-73
2022/04/11 13:45:06;;;;;;;0.97;0.20;;;;;;;;;;5054204;28;20024;-73
2022/04/11 13:47:31;;;;;;;0.98;0.28;;;;;;;;;;5064986;28;20025;-73
2022/04/11 13:49:56;;;;;;;0.30;0.20;;;;;;;;;;5036059;28;20021;-74
2022/04/11 13:52:22;;;;;;;1.17;0.30;;;;;;;;;;5039972;28;20212;-73
2022/04/11 13:54:47;;;;;;;0.30;0.20;;;;;;;;;;5025177;28;20547;-73
2022/04/11 13:57:12;;;;;;;0.30;0.20;;;;;;;;;;5033792;28;20432;-74
2022/04/11 13:59:40;;;;;;;1.25;0.25;;;;;;;;;;5032261;28;20024;-73
2022/04/11 14:02:08;;;;;;;0.57;0.10;;;;;;;;;;5017049;28;20054;-73
2022/04/11 14:04:33;;;;;;;0.63;0.10;;;;;;;;;;5032726;28;20025;-74
2022/04/11 14:06:58;;;;;;;0.40;0.10;;;;;;;;;;5039600;28;20029;-72
2022/04/11 14:09:24;;;;;;;0.60;0.10;;;;;;;;;;5031645;28;20814;-73
2022/04/11 14:11:49;;;;;;;0.10;0.10;;;;;;;;;;5048994;28;20033;-74
2022/04/11 14:14:17;;;;;;;1.25;0.20;;;;;;;;;;5037138;28;20048;-75
2022/04/11 14:16:43;;;;;;;1.70;0.30;;;;;;;;;;5038313;28;20737;-73
2022/04/11 14:19:08;;;;;;;0.60;0.20;;;;;;;;;;5045038;28;20057;-74
2022/04/11 14:21:34;;;;;;;0.85;0.20;;;;;;;;;;5033457;28;20033;-73
2022/04/11 14:23:59;;;;;;;0.38;0.15;;;;;;;;;;5051001;28;20025;-73
2022/04/11 14:26:25;;;;;;;0.40;0.10;;;;;;;;;;5034073;28;20103;-73
2022/04/11 14:28:50;;;;;;;0.50;0.20;;;;;;;;;;5039975;28;20044;-74
2022/04/11 14:31:15;;;;;;;1.53;0.20;;;;;;;;;;5054459;28;20385;-74
2022/04/11 14:33:41;;;;;;;0.45;0.20;;;;;;;;;;5044570;28;20287;-74
2022/04/11 14:36:07;;;;;;;0.77;0.10;;;;;;;;;;5049098;28;20100;-74
2022/04/11 14:38:33;;;;;;;1.35;0.20;;;;;;;;;;5034052;28;20036;-74
2022/04/11 14:40:58;;;;;;;0.43;0.10;;;;;;;;;;5049240;28;20017;-73